»·PEaware :: UAL1982 KSAN-KDEN

UAL1982 :: KSAN-KDEN

FLIGHT INFORMATION

Flight Status: Arrived
Operator:
United Airlines
More flights by this operator :: More flights under this callsign
Pilot: Chuck O. (4337)
Aircraft: AIRBUS A320
(A320)
More flights by this aircraft type
Origin: KSAN San Diego Intl-Lindbergh
United States
Destination: KDEN Denver Intl
United States
More flights between these airports :: More routes between these airports
Route: ZZOOO1 MTBAL AVRRY EED J236 TBC DVC WOLLF CREDE3
File this flight plan on PilotEdge
Remarks: SEL / CHAR
Altitude:
(Current/Filed)
370ft
Speed:
(Current/Filed)
442kts
Departed: 28-Nov-17 01:30 PM
Arrived: 28-Nov-17 03:31 PM
Distance/Time
Traveled:
740nm/2:00
Distance/Time
To Go:
Arrived

Flight Plot

Page will automatically refresh every two minutes.

Flight plan parsing failed; only flown route is shown


Map Options




Map Legend


Flown Route
Filed Route
Departure Airport
Arrival Airport
Navaid (VOR, NDB)
Fix

Horizontal Profiles

Position Reports

Time Latitude Longitude Heading Altitude Ground
Speed
28-Nov-17 13:02 32.734533 -117.203453 230 29ft 0kts
28-Nov-17 13:03 32.734533 -117.203453 230 29ft 0kts
28-Nov-17 13:04 32.734533 -117.203453 230 29ft 0kts
28-Nov-17 13:05 32.734533 -117.203453 230 29ft 0kts
28-Nov-17 13:06 32.734533 -117.203453 230 29ft 0kts
28-Nov-17 13:07 32.734533 -117.203453 230 29ft 0kts
28-Nov-17 13:08 32.734533 -117.203453 230 29ft 0kts
28-Nov-17 13:09 32.734533 -117.203453 230 29ft 0kts
28-Nov-17 13:10 32.734533 -117.203453 230 29ft 0kts
28-Nov-17 13:11 32.734533 -117.203453 230 29ft 0kts
28-Nov-17 13:12 32.734533 -117.203453 230 29ft 0kts
28-Nov-17 13:13 32.734533 -117.203453 230 29ft 0kts
28-Nov-17 13:14 32.734533 -117.203453 230 29ft 0kts
28-Nov-17 13:15 32.734533 -117.203453 230 29ft 0kts
28-Nov-17 13:16 32.734916 -117.203044 193 29ft 2kts
28-Nov-17 13:17 32.735120 -117.203233 106 29ft 0kts
28-Nov-17 13:18 32.735120 -117.203233 106 29ft 0kts
28-Nov-17 13:19 32.735120 -117.203232 106 29ft 0kts
28-Nov-17 13:20 32.735120 -117.203231 106 29ft 0kts
28-Nov-17 13:21 32.735119 -117.203230 106 29ft 0kts
28-Nov-17 13:22 32.735119 -117.203230 106 29ft 0kts
28-Nov-17 13:23 32.735119 -117.203229 106 29ft 0kts
28-Nov-17 13:24 32.735119 -117.203228 106 29ft 0kts
28-Nov-17 13:25 32.735118 -117.203227 106 29ft 0kts
28-Nov-17 13:26 32.735118 -117.203226 106 29ft 0kts
28-Nov-17 13:27 32.735445 -117.201840 90 29ft 13kts
28-Nov-17 13:28 32.734120 -117.196271 106 29ft 21kts
28-Nov-17 13:29 32.732161 -117.188124 106 29ft 29kts
28-Nov-17 13:30 32.729837 -117.178886 126 29ft 20kts
28-Nov-17 13:31 32.729351 -117.177337 66 29ft 0kts
28-Nov-17 13:32 32.729352 -117.177337 66 29ft 0kts
28-Nov-17 13:33 32.729700 -117.176477 56 29ft 16kts
28-Nov-17 13:34 32.730833 -117.178266 286 29ft 17kts
28-Nov-17 13:35 32.739649 -117.214337 285 726ft 187kts
28-Nov-17 13:36 32.755789 -117.283080 281 3777ft 243kts
28-Nov-17 13:37 32.711285 -117.327402 152 6770ft 266kts
28-Nov-17 13:38 32.653792 -117.268132 139 9322ft 285kts
28-Nov-17 13:39 32.624049 -117.179147 94 10907ft 334kts
28-Nov-17 13:40 32.615091 -117.061160 98 12093ft 379kts
28-Nov-17 13:41 32.603525 -116.934642 95 14356ft 383kts
28-Nov-17 13:42 32.623480 -116.813643 67 16524ft 393kts
28-Nov-17 13:43 32.707612 -116.733934 20 18417ft 404kts
28-Nov-17 13:44 32.813751 -116.683848 22 20178ft 415kts
28-Nov-17 13:45 32.921940 -116.630468 21 21817ft 425kts
28-Nov-17 13:46 33.031978 -116.575780 22 23318ft 433kts
28-Nov-17 13:47 33.143347 -116.517494 22 24648ft 442kts
28-Nov-17 13:48 33.257228 -116.457839 22 25871ft 450kts
28-Nov-17 13:49 33.372337 -116.396598 27 27028ft 457kts
28-Nov-17 13:50 33.458401 -116.285970 56 28102ft 463kts
28-Nov-17 13:51 33.533769 -116.158760 54 29081ft 471kts
28-Nov-17 13:52 33.607524 -116.028392 66 30002ft 476kts
28-Nov-17 13:53 33.654231 -115.880653 70 31142ft 473kts
28-Nov-17 13:54 33.701174 -115.733149 70 32232ft 472kts
28-Nov-17 13:55 33.749029 -115.586739 61 33213ft 471kts
28-Nov-17 13:56 33.841049 -115.475721 40 34054ft 472kts
28-Nov-17 13:57 33.939445 -115.370602 41 34794ft 473kts
28-Nov-17 13:58 34.037838 -115.265467 41 35497ft 472kts
28-Nov-17 13:59 34.136163 -115.159562 41 36022ft 473kts
28-Nov-17 14:00 34.234356 -115.053714 41 36506ft 473kts
28-Nov-17 14:01 34.332415 -114.947530 40 36918ft 473kts
28-Nov-17 14:02 34.430906 -114.840643 40 37114ft 475kts
28-Nov-17 14:03 34.528849 -114.733919 40 37113ft 474kts
28-Nov-17 14:04 34.626826 -114.626840 40 37109ft 475kts
28-Nov-17 14:05 34.725188 -114.518842 40 37126ft 477kts
28-Nov-17 14:06 34.804255 -114.390909 63 37146ft 480kts
28-Nov-17 14:07 34.866291 -114.246232 60 37153ft 482kts
28-Nov-17 14:08 34.929139 -114.104177 62 37132ft 473kts
28-Nov-17 14:09 34.991146 -113.962542 61 37137ft 472kts
28-Nov-17 14:10 35.052852 -113.820847 61 37156ft 472kts
28-Nov-17 14:11 35.114568 -113.678687 61 37201ft 476kts
28-Nov-17 14:12 35.176425 -113.535648 61 37207ft 477kts
28-Nov-17 14:13 35.238334 -113.391791 61 37206ft 476kts
28-Nov-17 14:14 35.298116 -113.252298 61 37224ft 476kts
28-Nov-17 14:15 35.359575 -113.108286 61 37249ft 476kts
28-Nov-17 14:16 35.420538 -112.964843 61 37262ft 475kts
28-Nov-17 14:17 35.481306 -112.821264 61 37274ft 474kts
28-Nov-17 14:18 35.541914 -112.677334 61 37276ft 474kts
28-Nov-17 14:19 35.602282 -112.533526 61 37281ft 473kts
28-Nov-17 14:20 35.662236 -112.389954 60 37284ft 472kts
28-Nov-17 14:21 35.722162 -112.245867 60 37291ft 472kts
28-Nov-17 14:22 35.781575 -112.102382 60 37293ft 471kts
28-Nov-17 14:23 35.841047 -111.958132 60 37292ft 470kts
28-Nov-17 14:24 35.900050 -111.814348 60 37293ft 470kts
28-Nov-17 14:25 35.958750 -111.670642 60 37297ft 468kts
28-Nov-17 14:26 36.017192 -111.527093 60 37287ft 466kts
28-Nov-17 14:27 36.074974 -111.384404 60 37289ft 465kts
28-Nov-17 14:28 36.138132 -111.245811 45 37293ft 456kts
28-Nov-17 14:29 36.224773 -111.131696 42 37282ft 455kts
28-Nov-17 14:30 36.310026 -111.015860 42 37289ft 455kts
28-Nov-17 14:31 36.396100 -110.900117 42 37292ft 455kts
28-Nov-17 14:32 36.481029 -110.784884 42 37289ft 455kts
28-Nov-17 14:33 36.566098 -110.669233 42 37299ft 454kts
28-Nov-17 14:34 36.651561 -110.552628 42 37300ft 454kts
28-Nov-17 14:35 36.736431 -110.436445 42 37310ft 454kts
28-Nov-17 14:36 36.821173 -110.319907 42 37315ft 454kts
28-Nov-17 14:37 36.906078 -110.202907 42 37323ft 453kts
28-Nov-17 14:38 36.990402 -110.086168 42 37337ft 452kts
28-Nov-17 14:39 37.074804 -109.968935 42 37344ft 451kts
28-Nov-17 14:40 37.158583 -109.852131 42 37345ft 451kts
28-Nov-17 14:41 37.242037 -109.735379 42 37359ft 449kts
28-Nov-17 14:42 37.325553 -109.618133 42 37357ft 449kts
28-Nov-17 14:43 37.408435 -109.501306 42 37366ft 448kts
28-Nov-17 14:44 37.491263 -109.384226 42 37373ft 448kts
28-Nov-17 14:45 37.574157 -109.266525 42 37368ft 448kts
28-Nov-17 14:46 37.656588 -109.149058 42 37355ft 447kts
28-Nov-17 14:47 37.739126 -109.031136 42 37345ft 447kts
28-Nov-17 14:48 37.819147 -108.911073 50 37341ft 452kts
28-Nov-17 14:49 37.884735 -108.775326 52 37336ft 452kts
28-Nov-17 14:50 37.951247 -108.639998 52 37339ft 451kts
28-Nov-17 14:51 38.016714 -108.504797 52 37345ft 450kts
28-Nov-17 14:52 38.082215 -108.369386 52 37349ft 448kts
28-Nov-17 14:53 38.147220 -108.234454 52 37350ft 448kts
28-Nov-17 14:54 38.211841 -108.099679 52 37347ft 447kts
28-Nov-17 14:55 38.276552 -107.964087 52 37336ft 447kts
28-Nov-17 14:56 38.340920 -107.828940 52 37329ft 447kts
28-Nov-17 14:57 38.405000 -107.693568 52 37323ft 447kts
28-Nov-17 14:58 38.468722 -107.556969 54 37333ft 447kts
28-Nov-17 14:59 38.530433 -107.419395 54 37324ft 448kts
28-Nov-17 15:00 38.592230 -107.281448 54 37325ft 447kts
28-Nov-17 15:01 38.653866 -107.143050 55 37334ft 447kts
28-Nov-17 15:02 38.715190 -107.004835 55 37339ft 447kts
28-Nov-17 15:03 38.776544 -106.865901 55 37337ft 447kts
28-Nov-17 15:04 38.837496 -106.727227 55 37352ft 447kts
28-Nov-17 15:05 38.899820 -106.589656 54 37364ft 446kts
28-Nov-17 15:06 38.963427 -106.452402 54 36809ft 443kts
28-Nov-17 15:07 39.025811 -106.316865 54 34689ft 440kts
28-Nov-17 15:08 39.087212 -106.180951 54 32350ft 437kts
28-Nov-17 15:09 39.146456 -106.048321 54 30211ft 411kts
28-Nov-17 15:10 39.201914 -105.922701 55 28120ft 396kts
28-Nov-17 15:11 39.255409 -105.800791 56 26114ft 387kts
28-Nov-17 15:12 39.307986 -105.680825 57 24088ft 378kts
28-Nov-17 15:13 39.359046 -105.564298 58 22177ft 368kts
28-Nov-17 15:14 39.406991 -105.458504 54 21154ft 326kts
28-Nov-17 15:15 39.458368 -105.361836 54 19574ft 325kts
28-Nov-17 15:16 39.508568 -105.266221 55 18101ft 318kts
28-Nov-17 15:17 39.550256 -105.186742 55 16892ft 316kts
28-Nov-17 15:18 39.590649 -105.109531 55 16006ft 305kts
28-Nov-17 15:19 39.637365 -105.019946 55 14977ft 295kts
28-Nov-17 15:20 39.685755 -104.926613 55 13901ft 291kts
28-Nov-17 15:21 39.726361 -104.853153 37 13037ft 299kts
28-Nov-17 15:22 39.802742 -104.840266 357 12156ft 263kts
28-Nov-17 15:23 39.869861 -104.839376 358 11689ft 223kts
28-Nov-17 15:24 39.928626 -104.838419 359 11002ft 194kts
28-Nov-17 15:25 39.980875 -104.839253 358 11010ft 182kts
28-Nov-17 15:26 40.031523 -104.839855 357 11022ft 182kts
28-Nov-17 15:27 40.081772 -104.839681 358 10563ft 179kts
28-Nov-17 15:28 40.113900 -104.802865 87 9306ft 186kts
28-Nov-17 15:29 40.108914 -104.737285 132 8103ft 189kts
28-Nov-17 15:30 40.072007 -104.706348 147 8022ft 173kts
28-Nov-17 15:31 40.028110 -104.685214 181 8107ft 162kts
28-Nov-17 15:32 39.983908 -104.685803 177 7197ft 156kts
28-Nov-17 15:33 39.941572 -104.686295 177 6337ft 150kts
28-Nov-17 15:34 39.900171 -104.686775 177 5544ft 147kts
28-Nov-17 15:35 39.873482 -104.686995 181 5445ft 55kts
28-Nov-17 15:36 39.868414 -104.686375 105 5445ft 11kts
28-Nov-17 15:37 39.868355 -104.686008 95 5445ft 0kts
28-Nov-17 15:38 39.868355 -104.686007 95 5445ft 0kts
28-Nov-17 15:39 39.868211 -104.684303 113 5445ft 12kts
28-Nov-17 15:40 39.863660 -104.683878 182 5445ft 21kts
28-Nov-17 15:41 39.860553 -104.681889 64 5445ft 16kts
28-Nov-17 15:42 39.860756 -104.680997 85 5445ft 0kts
28-Nov-17 15:43 39.860782 -104.680465 87 5445ft 6kts
28-Nov-17 15:44 39.860101 -104.676178 88 5445ft 17kts
28-Nov-17 15:45 39.859639 -104.672859 177 5445ft 1kts
28-Nov-17 15:46 39.859083 -104.672888 182 5445ft 0kts
28-Nov-17 15:47 39.859067 -104.672889 182 5445ft 0kts

Navigation Log

Ident Type
Flight plan parsing failed, navigation log unavailable